createdAt,value
2022-09-04T00:01:59.654Z,98636.91
2022-09-04T00:04:36.664Z,98626.03
2022-09-04T00:07:19.181Z,98627.22
2022-09-04T00:09:58.237Z,98627.22
2022-09-04T00:12:34.424Z,98625.38
2022-09-04T00:15:08.909Z,98618.16
2022-09-04T00:17:45.736Z,98626.25
2022-09-04T00:20:27.433Z,98631.59
2022-09-04T00:23:03.972Z,98637.16
2022-09-04T00:25:41.837Z,98632.13
2022-09-04T00:28:18.418Z,98628.50
2022-09-04T00:30:54.941Z,98632.28
2022-09-04T00:33:31.558Z,98631.63
2022-09-04T00:36:03.557Z,98631.66
2022-09-04T00:38:42.199Z,98641.53
2022-09-04T00:41:19.951Z,98642.91
2022-09-04T00:44:18.817Z,98646.72
2022-09-04T00:47:03.570Z,98650.75
2022-09-04T00:49:57.864Z,98643.22
2022-09-04T00:52:42.661Z,98648.22
2022-09-04T00:55:28.803Z,98649.09
2022-09-04T00:58:10.988Z,98648.28
2022-09-04T01:00:40.329Z,98648.59
2022-09-04T01:03:36.279Z,98651.06
2022-09-04T01:06:35.445Z,98659.13
2022-09-04T01:09:38.945Z,98665.13
2022-09-04T01:12:20.766Z,98663.97
2022-09-04T01:14:55.979Z,98666.63
2022-09-04T01:17:33.012Z,98664.84
2022-09-04T01:20:15.589Z,98665.19
2022-09-04T01:23:00.264Z,98670.19
2022-09-04T01:25:51.873Z,98670.56
2022-09-04T01:28:29.121Z,98676.25
2022-09-04T01:31:06.768Z,98680.19
2022-09-04T01:33:42.597Z,98689.91
2022-09-04T01:36:19.970Z,98689.63
2022-09-04T01:38:53.314Z,98682.69
2022-09-04T01:41:33.956Z,98688.22
2022-09-04T01:44:09.323Z,98686.22
2022-09-04T01:46:50.087Z,98683.88
2022-09-04T01:49:28.793Z,98681.84
2022-09-04T01:52:06.963Z,98686.84
2022-09-04T01:54:50.314Z,98687.69
2022-09-04T01:57:31.088Z,98690.06
2022-09-04T02:00:07.734Z,98692.41
2022-09-04T02:02:50.379Z,98701.44
2022-09-04T02:05:27.745Z,98695.91
2022-09-04T02:08:12.619Z,98696.91
2022-09-04T02:10:50.196Z,98698.56
2022-09-04T02:13:24.142Z,98703.28
2022-09-04T02:16:06.029Z,98704.63
2022-09-04T02:18:45.631Z,98699.25
2022-09-04T02:21:26.214Z,98708.94
2022-09-04T02:24:04.829Z,98707.44
2022-09-04T02:26:38.606Z,98704.75
2022-09-04T02:29:16.353Z,98716.13
2022-09-04T02:31:55.308Z,98717.63
2022-09-04T02:34:33.877Z,98709.09
2022-09-04T02:37:10.512Z,98707.75
2022-09-04T02:39:52.620Z,98704.41
2022-09-04T02:42:31.235Z,98703.59
2022-09-04T02:45:14.198Z,98708.34
2022-09-04T02:47:48.168Z,98712.06
2022-09-04T02:50:30.076Z,98709.13
2022-09-04T02:53:08.565Z,98705.63
2022-09-04T02:56:09.505Z,98706.00
2022-09-04T02:58:52.043Z,98713.13
2022-09-04T03:01:29.849Z,98711.97
2022-09-04T03:04:04.994Z,98711.53
2022-09-04T03:06:48.690Z,98715.00
2022-09-04T03:09:22.733Z,98714.16
2022-09-04T03:11:58.853Z,98711.91
2022-09-04T03:14:34.535Z,98709.50
2022-09-04T03:17:10.983Z,98728.53
2022-09-04T03:19:48.644Z,98729.94
2022-09-04T03:22:22.992Z,98726.38
2022-09-04T03:25:10.803Z,98719.97
2022-09-04T03:27:39.102Z,98724.81
2022-09-04T03:30:09.653Z,98722.16
2022-09-04T03:32:52.412Z,98724.88
2022-09-04T03:35:30.405Z,98732.59
2022-09-04T03:38:09.240Z,98730.69
2022-09-04T03:40:41.710Z,98728.06
2022-09-04T03:43:23.019Z,98737.47
2022-09-04T03:45:57.682Z,98729.31
2022-09-04T03:48:41.232Z,98734.19
2022-09-04T03:51:24.371Z,98736.13
2022-09-04T03:54:02.437Z,98733.34
2022-09-04T03:56:47.758Z,98736.78
2022-09-04T03:59:29.064Z,98740.94
2022-09-04T04:02:06.545Z,98746.97
2022-09-04T04:05:12.063Z,98750.06
2022-09-04T04:07:50.867Z,98744.19
2022-09-04T04:10:33.357Z,98753.41
2022-09-04T04:13:19.391Z,98746.53
2022-09-04T04:15:58.400Z,98746.56
2022-09-04T04:18:54.169Z,98755.72
2022-09-04T04:21:37.023Z,98762.31
2022-09-04T04:24:30.002Z,98772.78
2022-09-04T04:27:07.613Z,98773.63
2022-09-04T04:29:56.854Z,98779.31
2022-09-04T04:32:46.244Z,98773.72
2022-09-04T04:35:27.244Z,98782.78
2022-09-04T04:38:08.875Z,98789.06
2022-09-04T04:40:55.867Z,98783.25
2022-09-04T04:43:34.623Z,98782.25
2022-09-04T04:46:12.516Z,98793.31
2022-09-04T04:49:07.402Z,98795.91
2022-09-04T04:51:57.880Z,98791.41
2022-09-04T04:54:52.395Z,98804.47
2022-09-04T04:57:33.012Z,98808.13
2022-09-04T05:00:09.256Z,98816.81
2022-09-04T05:02:43.653Z,98818.13
2022-09-04T05:05:17.341Z,98811.47
2022-09-04T05:07:56.550Z,98820.25
2022-09-04T05:10:30.242Z,98822.31
2022-09-04T05:13:13.029Z,98822.13
2022-09-04T05:16:05.494Z,98824.97
2022-09-04T05:18:42.241Z,98841.69
2022-09-04T05:21:20.871Z,98846.06
2022-09-04T05:23:56.008Z,98843.56
2022-09-04T05:26:32.182Z,98849.78
2022-09-04T05:29:07.187Z,98858.47
2022-09-04T05:31:43.457Z,98862.25
2022-09-04T05:34:20.753Z,98865.28
2022-09-04T05:36:58.583Z,98871.00
2022-09-04T05:39:31.630Z,98870.00
2022-09-04T05:42:14.088Z,98877.38
2022-09-04T05:44:59.005Z,98875.69
2022-09-04T05:47:43.223Z,98882.16
2022-09-04T05:50:37.530Z,98883.34
2022-09-04T05:53:28.770Z,98876.53
2022-09-04T05:56:41.240Z,98890.38
2022-09-04T05:59:27.809Z,98886.97
2022-09-04T06:02:31.092Z,98892.66
2022-09-04T06:05:19.002Z,98893.38
2022-09-04T06:07:56.183Z,98899.53
2022-09-04T06:10:36.531Z,98899.91
2022-09-04T06:13:32.668Z,98897.19
2022-09-04T06:16:16.679Z,98903.47
2022-09-04T06:19:01.347Z,98909.09
2022-09-04T06:21:59.765Z,98904.13
2022-09-04T06:24:56.788Z,98910.56
2022-09-04T06:27:39.345Z,98905.19
2022-09-04T06:30:10.319Z,98911.22
2022-09-04T06:32:53.509Z,98914.00
2022-09-04T06:35:52.796Z,98920.72
2022-09-04T06:38:35.500Z,98926.97
2022-09-04T06:41:20.009Z,98927.22
2022-09-04T06:43:59.525Z,98921.03
2022-09-04T06:47:00.449Z,98926.38
2022-09-04T06:49:58.750Z,98928.94
2022-09-04T06:52:34.718Z,98932.28
2022-09-04T06:55:14.906Z,98930.94
2022-09-04T06:58:00.178Z,98935.81
2022-09-04T07:00:31.572Z,98931.59
2022-09-04T07:03:21.819Z,98935.19
2022-09-04T07:05:55.666Z,98938.03
2022-09-04T07:08:38.338Z,98938.69
2022-09-04T07:11:20.181Z,98938.88
2022-09-04T07:14:16.999Z,98948.06
2022-09-04T07:16:57.159Z,98958.78
2022-09-04T07:20:08.455Z,98958.34
2022-09-04T07:22:55.019Z,98964.22
2022-09-04T07:25:28.329Z,98965.84
2022-09-04T07:28:15.647Z,98964.94
2022-09-04T07:30:47.589Z,98968.78
2022-09-04T07:33:24.505Z,98961.09
2022-09-04T07:36:01.031Z,98963.03
2022-09-04T07:38:36.898Z,98965.53
2022-09-04T07:41:14.910Z,98961.84
2022-09-04T07:43:54.859Z,98959.25
2022-09-04T07:46:33.588Z,98975.25
2022-09-04T07:49:11.893Z,98977.88
2022-09-04T07:51:46.450Z,98977.66
2022-09-04T07:54:50.243Z,98973.91
2022-09-04T07:57:40.258Z,98979.53
2022-09-04T08:00:11.255Z,98987.88
2022-09-04T08:03:16.905Z,98993.19
2022-09-04T08:05:53.224Z,98982.88
2022-09-04T08:08:58.366Z,98993.16
2022-09-04T08:11:41.308Z,98991.84
2022-09-04T08:14:33.989Z,98997.91
2022-09-04T08:17:37.126Z,98989.63
2022-09-04T08:20:12.682Z,99006.88
2022-09-04T08:22:54.293Z,98996.09
2022-09-04T08:25:28.738Z,99004.03
2022-09-04T08:28:12.522Z,99003.44
2022-09-04T08:30:51.975Z,99006.13
2022-09-04T08:33:51.249Z,99010.94
2022-09-04T08:36:29.012Z,99007.41
2022-09-04T08:39:07.990Z,99015.50
2022-09-04T08:42:11.356Z,99012.72
2022-09-04T08:45:16.298Z,99019.28
2022-09-04T08:48:20.688Z,99015.69
2022-09-04T08:51:09.622Z,99017.94
2022-09-04T08:54:18.437Z,99017.09
2022-09-04T08:56:54.136Z,99015.44
2022-09-04T09:00:03.194Z,99025.38
2022-09-04T09:03:04.586Z,99028.28
2022-09-04T09:06:02.093Z,99021.72
2022-09-04T09:09:11.439Z,99020.84
2022-09-04T09:12:19.094Z,99012.56
2022-09-04T09:15:15.285Z,99015.06
2022-09-04T09:18:01.158Z,99011.13
2022-09-04T09:20:30.647Z,99010.38
2022-09-04T09:23:20.733Z,99012.34
2022-09-04T09:25:53.984Z,99009.97
2022-09-04T09:29:06.802Z,99005.84
2022-09-04T09:32:03.848Z,99012.69
2022-09-04T09:35:10.581Z,98992.38
2022-09-04T09:38:14.616Z,98997.63
2022-09-04T09:41:10.074Z,99006.66
2022-09-04T09:44:06.879Z,98999.53
2022-09-04T09:47:12.918Z,99004.75
2022-09-04T09:50:07.821Z,99006.31
2022-09-04T09:53:28.792Z,99000.31
2022-09-04T09:56:38.429Z,99007.91
2022-09-04T09:59:53.809Z,99002.41
2022-09-04T10:02:46.953Z,99003.63
2022-09-04T10:05:37.523Z,99000.88
2022-09-04T10:08:35.646Z,99002.84
2022-09-04T10:11:44.290Z,98997.53
2022-09-04T10:14:47.877Z,98998.03
2022-09-04T10:17:55.813Z,98992.16
2022-09-04T10:20:46.179Z,98999.28
2022-09-04T10:23:52.748Z,98993.88
2022-09-04T10:26:50.231Z,98987.13
2022-09-04T10:29:35.690Z,98978.22
2022-09-04T10:32:21.541Z,98992.56
2022-09-04T10:35:10.875Z,98978.88
2022-09-04T10:38:11.912Z,98983.06
2022-09-04T10:41:05.977Z,98991.31
2022-09-04T10:43:56.413Z,98983.13
2022-09-04T10:46:30.665Z,98983.03
2022-09-04T10:49:15.513Z,98976.88
2022-09-04T10:52:08.492Z,98981.94
2022-09-04T10:55:07.988Z,98983.56
2022-09-04T10:57:50.073Z,98985.47
2022-09-04T11:00:20.518Z,98973.47
2022-09-04T11:03:15.598Z,98972.03
2022-09-04T11:06:28.263Z,98973.50
2022-09-04T11:09:18.360Z,98972.00
2022-09-04T11:12:17.308Z,98971.22
2022-09-04T11:15:27.642Z,98970.84
2022-09-04T11:18:37.643Z,98969.84
2022-09-04T11:21:47.998Z,98974.44
2022-09-04T11:24:44.194Z,98967.91
2022-09-04T11:27:52.540Z,98957.03
2022-09-04T11:30:23.762Z,98952.78
2022-09-04T11:33:36.815Z,98954.75
2022-09-04T11:36:46.301Z,98953.09
2022-09-04T11:40:06.372Z,98946.28
2022-09-04T11:42:50.175Z,98952.00
2022-09-04T11:45:48.082Z,98958.19
2022-09-04T11:48:43.120Z,98947.84
2022-09-04T11:51:40.505Z,98956.81
2022-09-04T11:54:38.434Z,98961.88
2022-09-04T11:57:17.918Z,98962.94
2022-09-04T12:00:06.846Z,98966.84
2022-09-04T12:03:09.470Z,98968.97
2022-09-04T12:05:50.746Z,98966.84
2022-09-04T12:08:51.143Z,98967.72
2022-09-04T12:11:50.938Z,98971.44
2022-09-04T12:14:35.474Z,98966.97
2022-09-04T12:17:27.385Z,98959.28
2022-09-04T12:20:26.682Z,98963.16
2022-09-04T12:23:19.195Z,98968.47
2022-09-04T12:26:19.137Z,98971.19
2022-09-04T12:29:22.504Z,98967.19
2022-09-04T12:32:35.523Z,98966.84
2022-09-04T12:35:31.220Z,98957.50
2022-09-04T12:38:18.252Z,98960.34
2022-09-04T12:40:55.595Z,98961.28
2022-09-04T12:43:42.849Z,98957.94
2022-09-04T12:46:29.471Z,98959.28
2022-09-04T12:49:17.214Z,98961.19
2022-09-04T12:51:52.709Z,98966.69
2022-09-04T12:54:33.242Z,98960.22
2022-09-04T12:57:17.434Z,98962.28
2022-09-04T13:00:01.247Z,98965.97
2022-09-04T13:02:40.396Z,98959.84
2022-09-04T13:05:29.597Z,98963.84
2022-09-04T13:08:05.041Z,98964.09
2022-09-04T13:10:45.081Z,98954.22
2022-09-04T13:13:21.592Z,98958.56
2022-09-04T13:16:00.517Z,98956.69
2022-09-04T13:18:43.301Z,98964.28
2022-09-04T13:21:26.354Z,98957.16
2022-09-04T13:24:10.172Z,98962.47
2022-09-04T13:26:52.322Z,98965.53
2022-09-04T13:29:33.216Z,98962.22
2022-09-04T13:32:33.690Z,98959.53
2022-09-04T13:35:17.490Z,98965.16
2022-09-04T13:38:03.231Z,98960.69
2022-09-04T13:40:48.116Z,98967.28
2022-09-04T13:43:50.459Z,98956.66
2022-09-04T13:46:25.326Z,98953.75
2022-09-04T13:48:59.775Z,98961.38
2022-09-04T13:51:32.968Z,98948.31
2022-09-04T13:54:09.825Z,98943.13
2022-09-04T13:56:43.620Z,98948.94
2022-09-04T13:59:20.274Z,98956.03
2022-09-04T14:01:52.892Z,98953.72
2022-09-04T14:04:26.445Z,98946.28
2022-09-04T14:07:06.999Z,98959.38
2022-09-04T14:09:42.423Z,98946.31
2022-09-04T14:12:38.654Z,98945.19
2022-09-04T14:15:34.386Z,98946.44
2022-09-04T14:18:16.704Z,98949.53
2022-09-04T14:21:01.326Z,98945.53
2022-09-04T14:23:45.858Z,98942.66
2022-09-04T14:26:24.521Z,98946.75
2022-09-04T14:28:59.401Z,98954.00
2022-09-04T14:31:35.246Z,98947.97
2022-09-04T14:34:19.094Z,98947.41
2022-09-04T14:36:59.787Z,98951.06
2022-09-04T14:39:33.467Z,98948.47
2022-09-04T14:42:30.029Z,98955.50
2022-09-04T14:45:13.489Z,98950.91
2022-09-04T14:47:47.785Z,98953.63
2022-09-04T14:50:19.147Z,98953.84
2022-09-04T14:52:51.860Z,98949.25
2022-09-04T14:55:27.492Z,98945.69
2022-09-04T14:58:02.666Z,98948.63
2022-09-04T15:00:36.358Z,98950.28
2022-09-04T15:03:15.636Z,98948.22
2022-09-04T15:05:48.040Z,98945.44
2022-09-04T15:08:28.885Z,98944.31
2022-09-04T15:11:00.687Z,98943.50
2022-09-04T15:13:46.430Z,98935.38
2022-09-04T15:16:22.124Z,98932.97
2022-09-04T15:18:59.007Z,98932.38
2022-09-04T15:21:37.542Z,98933.06
2022-09-04T15:24:16.165Z,98934.47
2022-09-04T15:26:47.722Z,98936.22
2022-09-04T15:29:22.848Z,98925.78
2022-09-04T15:32:00.753Z,98933.78
2022-09-04T15:34:29.433Z,98927.34
2022-09-04T15:37:10.636Z,98935.78
2022-09-04T15:39:50.433Z,98930.78
2022-09-04T15:42:35.987Z,98944.50
2022-09-04T15:45:17.007Z,98926.59
2022-09-04T15:48:04.389Z,98925.63
2022-09-04T15:50:36.283Z,98922.31
2022-09-04T15:53:16.950Z,98919.56
2022-09-04T15:55:46.939Z,98919.69
2022-09-04T15:58:19.824Z,98919.50
2022-09-04T16:01:14.675Z,98916.19
2022-09-04T16:04:00.287Z,98919.34
2022-09-04T16:06:33.539Z,98924.06
2022-09-04T16:09:06.415Z,98921.94
2022-09-04T16:11:41.540Z,98919.72
2022-09-04T16:14:18.614Z,98925.63
2022-09-04T16:16:53.471Z,98919.94
2022-09-04T16:19:28.546Z,98912.84
2022-09-04T16:22:09.222Z,98921.56
2022-09-04T16:24:47.212Z,98909.94
2022-09-04T16:27:19.845Z,98914.94
2022-09-04T16:29:52.154Z,98911.56
2022-09-04T16:32:23.935Z,98914.69
2022-09-04T16:34:58.536Z,98916.88
2022-09-04T16:37:32.363Z,98923.13
2022-09-04T16:40:24.283Z,98911.59
2022-09-04T16:43:00.011Z,98903.72
2022-09-04T16:45:34.594Z,98915.63
2022-09-04T16:48:34.754Z,98904.28
2022-09-04T16:51:40.165Z,98904.13
2022-09-04T16:54:05.669Z,98908.91
2022-09-04T16:56:40.421Z,98904.53
2022-09-04T16:59:23.937Z,98919.13
2022-09-04T17:02:00.384Z,98914.16
2022-09-04T17:04:40.005Z,98915.38
2022-09-04T17:07:21.427Z,98919.94
2022-09-04T17:10:05.551Z,98912.88
2022-09-04T17:12:47.410Z,98913.72
2022-09-04T17:15:33.094Z,98919.13
2022-09-04T17:18:07.580Z,98922.88
2022-09-04T17:22:08.510Z,98926.59
2022-09-04T17:28:56.856Z,98924.09
2022-09-04T17:29:09.740Z,98919.69
2022-09-04T17:29:38.314Z,98925.34
2022-09-04T17:36:32.827Z,98925.94
2022-09-04T17:40:36.664Z,98921.63
2022-09-04T17:40:40.958Z,98918.25
2022-09-04T17:41:38.337Z,98923.44
2022-09-04T17:44:27.129Z,98916.28
2022-09-04T17:47:07.005Z,98918.47
2022-09-04T17:49:35.657Z,98916.72
2022-09-04T17:52:08.682Z,98924.69
2022-09-04T17:54:42.435Z,98921.09
2022-09-04T17:57:26.285Z,98929.53
2022-09-04T18:00:02.454Z,98926.53
2022-09-04T18:02:42.127Z,98932.69
2022-09-04T18:05:16.898Z,98938.88
2022-09-04T18:08:09.051Z,98941.13
2022-09-04T18:10:54.782Z,98940.88
2022-09-04T18:13:37.919Z,98950.06
2022-09-04T18:16:16.183Z,98947.28
2022-09-04T18:18:48.022Z,98951.84
2022-09-04T18:21:22.960Z,98950.59
2022-09-04T18:24:02.770Z,98959.75
2022-09-04T18:26:41.527Z,98961.03
2022-09-04T18:32:03.241Z,98961.63
2022-09-04T18:37:09.521Z,98969.84
2022-09-04T18:37:16.262Z,98968.25
2022-09-04T18:38:36.422Z,98969.97
2022-09-04T18:46:33.295Z,98981.13
2022-09-04T18:50:20.883Z,98982.66
2022-09-04T18:50:34.959Z,98994.28
2022-09-04T18:50:44.273Z,98983.13
2022-09-04T18:53:00.878Z,98994.00
2022-09-04T18:55:32.980Z,99005.84
2022-09-04T18:58:52.210Z,99002.22
2022-09-04T19:01:28.103Z,99012.75
2022-09-04T19:03:58.501Z,99012.50
2022-09-04T19:06:39.158Z,99015.84
2022-09-04T19:09:13.340Z,99012.75
2022-09-04T19:11:46.927Z,99014.53
2022-09-04T19:14:18.941Z,99025.81
2022-09-04T19:16:55.657Z,99023.56
2022-09-04T19:19:27.837Z,99022.25
2022-09-04T19:22:09.557Z,99022.66
2022-09-04T19:24:46.872Z,99018.81
2022-09-04T19:27:28.270Z,99031.38
2022-09-04T19:30:18.924Z,99024.25
2022-09-04T19:33:06.074Z,99024.03
2022-09-04T19:35:38.482Z,99026.34
2022-09-04T19:42:35.783Z,99027.22
2022-09-04T19:46:02.354Z,99025.91
2022-09-04T19:46:06.805Z,99031.66
2022-09-04T19:47:04.216Z,99028.53
2022-09-04T19:53:20.166Z,99023.13
2022-09-04T19:53:31.295Z,99023.09
2022-09-04T19:55:39.884Z,99016.50
2022-09-04T19:58:10.986Z,99021.84
2022-09-04T20:00:48.928Z,99025.88
2022-09-04T20:03:29.639Z,99014.81
2022-09-04T20:06:21.381Z,99020.84
2022-09-04T20:08:55.818Z,99018.25
2022-09-04T20:11:35.858Z,99016.84
2022-09-04T20:14:14.986Z,99015.41
2022-09-04T20:16:54.869Z,99020.53
2022-09-04T20:19:28.874Z,99023.69
2022-09-04T20:22:02.433Z,99023.28
2022-09-04T20:24:39.790Z,99012.78
2022-09-04T20:27:15.941Z,99020.25
2022-09-04T20:29:52.439Z,99021.25
2022-09-04T20:32:26.688Z,99025.91
2022-09-04T20:35:13.201Z,99021.56
2022-09-04T20:37:53.381Z,99016.03
2022-09-04T20:40:32.925Z,99021.69
2022-09-04T20:43:18.179Z,99022.88
2022-09-04T20:48:22.562Z,99026.56
2022-09-04T20:53:00.035Z,99032.34
2022-09-04T20:53:06.362Z,99027.97
2022-09-04T20:54:51.750Z,99025.59
2022-09-04T21:03:09.941Z,99018.97
2022-09-04T21:03:12.414Z,99021.13
2022-09-04T21:03:27.890Z,99028.31
2022-09-04T21:06:25.953Z,99026.31
2022-09-04T21:09:03.307Z,99024.28
2022-09-04T21:11:40.653Z,99018.56
2022-09-04T21:14:17.582Z,99024.28
2022-09-04T21:17:33.762Z,99017.38
2022-09-04T21:20:17.833Z,99022.63
2022-09-04T21:23:09.502Z,99024.69
2022-09-04T21:25:51.597Z,99021.91
2022-09-04T21:28:36.847Z,99025.06
2022-09-04T21:31:15.998Z,99024.00
2022-09-04T21:33:59.211Z,99030.72
2022-09-04T21:36:39.279Z,99033.31
2022-09-04T21:39:34.092Z,99037.97
2022-09-04T21:42:31.363Z,99031.94
2022-09-04T21:45:19.629Z,99040.13
2022-09-04T21:48:18.250Z,99044.59
2022-09-04T21:50:58.768Z,99045.25
2022-09-04T21:53:52.575Z,99043.94
2022-09-04T22:01:16.794Z,99048.94
2022-09-04T22:02:36.511Z,99045.78
2022-09-04T22:03:20.026Z,99045.88
2022-09-04T22:05:56.350Z,99045.50
2022-09-04T22:11:39.844Z,99048.66
2022-09-04T22:13:37.850Z,99059.53
2022-09-04T22:14:41.529Z,99059.28
2022-09-04T22:17:31.618Z,99053.25
2022-09-04T22:20:55.002Z,99059.75
2022-09-04T22:24:01.226Z,99068.38
2022-09-04T22:26:49.174Z,99058.81
2022-09-04T22:29:37.638Z,99064.56
2022-09-04T22:32:49.803Z,99062.97
2022-09-04T22:35:53.935Z,99066.63
2022-09-04T22:38:45.965Z,99059.53
2022-09-04T22:41:36.432Z,99062.00
2022-09-04T22:44:21.351Z,99062.47
2022-09-04T22:47:22.178Z,99063.75
2022-09-04T22:50:06.919Z,99070.31
2022-09-04T22:52:46.461Z,99073.22
2022-09-04T22:55:40.470Z,99077.56
2022-09-04T22:58:48.271Z,99079.53
2022-09-04T23:02:00.136Z,99074.81
2022-09-04T23:04:54.945Z,99074.84
2022-09-04T23:13:43.686Z,99079.28
2022-09-04T23:13:56.457Z,99073.38
2022-09-04T23:14:12.213Z,99078.56
2022-09-04T23:17:03.259Z,99081.16
2022-09-04T23:24:15.189Z,99077.13
2022-09-04T23:26:44.301Z,99076.06
2022-09-04T23:26:53.590Z,99072.28
2022-09-04T23:29:24.096Z,99079.84
2022-09-04T23:32:10.158Z,99084.66
2022-09-04T23:35:13.971Z,99084.28
2022-09-04T23:38:07.062Z,99079.78
2022-09-04T23:40:41.989Z,99083.81
2022-09-04T23:43:42.554Z,99091.78
2022-09-04T23:46:25.588Z,99086.28
2022-09-04T23:49:25.647Z,99086.06
2022-09-04T23:52:04.828Z,99088.19
2022-09-04T23:55:23.326Z,99089.75
2022-09-04T23:58:00.147Z,99091.59
